| Date | Time | Temp. (oF) | Dew Point (oF) | Rel. Hum. (%) | Press. (in.) | Wind Dir. | Wind Speed (mph) | Hourly Rainfall (in.) |
|
|---|---|---|---|---|---|---|---|---|---|
| 1 | 03/18 | 00:00 | 47 | 46 | 98 | 29.77 | WSW | 0 | 0.00 |
| 2 | 03/17 | 23:00 | 50 | 49 | 97 | 29.76 | WSW | 1 | 0.00 |
| 3 | 03/17 | 22:00 | 52 | 51 | 97 | 29.78 | W | 0 | 0.00 |
| 4 | 03/17 | 21:00 | 55 | 53 | 95 | 29.79 | W | 1 | 0.00 |
| 5 | 03/17 | 20:00 | 58 | 55 | 91 | 29.79 | NW | 1 | 0.00 |
| 6 | 03/17 | 19:00 | 61 | 57 | 87 | 29.78 | WSW | 2 | 0.00 |
| 7 | 03/17 | 18:00 | 63 | 58 | 85 | 29.78 | SSW | 1 | 0.00 |
| 8 | 03/17 | 17:00 | 64 | 58 | 82 | 29.77 | SW | 3 | 0.00 |
| 9 | 03/17 | 16:00 | 65 | 59 | 81 | 29.77 | S | 5 | 0.00 |
| 10 | 03/17 | 15:00 | 64 | 59 | 84 | 29.77 | SSW | 3 | 0.00 |
| 11 | 03/17 | 14:00 | 62 | 58 | 89 | 29.78 | NNW | 6 | 0.00 |
| 12 | 03/17 | 13:00 | 61 | 60 | 97 | 29.82 | SSW | 1 | 0.00 |
| 13 | 03/17 | 12:00 | 59 | 59 | 100 | 29.84 | N | 4 | 0.00 |
| 14 | 03/17 | 11:00 | 56 | 55 | 100 | 29.86 | WNW | 2 | 0.00 |
| 15 | 03/17 | 10:00 | 54 | 54 | 100 | 29.88 | WNW | 2 | 0.00 |
| 16 | 03/17 | 09:00 | 53 | 53 | 100 | 29.88 | W | 2 | 0.01 |
| 17 | 03/17 | 08:00 | 51 | 50 | 100 | 29.87 | WNW | 1 | 0.00 |
| 18 | 03/17 | 07:00 | 52 | 51 | 100 | 29.85 | NW | 1 | 0.00 |
| 19 | 03/17 | 06:00 | 52 | 51 | 100 | 29.85 | NNE | 0 | 0.01 |
| 20 | 03/17 | 05:00 | 52 | 51 | 100 | 29.86 | NNW | 1 | 0.00 |
| 21 | 03/17 | 04:00 | 52 | 51 | 100 | 29.86 | WNW | 1 | 0.00 |
| 22 | 03/17 | 03:00 | 52 | 51 | 100 | 29.86 | NNW | 0 | 0.01 |
| 23 | 03/17 | 02:00 | 53 | 52 | 99 | 29.89 | NNW | 0 | 0.00 |
| 24 | 03/17 | 01:00 | 54 | 52 | 96 | 29.91 | N | 2 | 0.00 |